sensor_id;sensor_type;location;lat;lon;timestamp;pressure;altitude;pressure_sealevel;temperature;humidity
20897;BME280;10608;42.600;23.398;2023-10-13T00:01:58;41255.03;;;-138.15;72.45
20897;BME280;10608;42.600;23.398;2023-10-13T00:04:28;41239.31;;;-138.15;72.30
20897;BME280;10608;42.600;23.398;2023-10-13T00:06:55;41198.00;;;-138.15;71.82
20897;BME280;10608;42.600;23.398;2023-10-13T00:09:24;41176.38;;;-138.15;71.36
20897;BME280;10608;42.600;23.398;2023-10-13T00:11:53;41192.09;;;-138.15;70.80
20897;BME280;10608;42.600;23.398;2023-10-13T00:14:19;41180.31;;;-138.15;70.46
20897;BME280;10608;42.600;23.398;2023-10-13T00:16:47;41182.28;;;-138.15;71.42
20897;BME280;10608;42.600;23.398;2023-10-13T00:19:30;41180.31;;;-138.15;71.75
20897;BME280;10608;42.600;23.398;2023-10-13T00:22:16;41137.03;;;-138.15;72.17
20897;BME280;10608;42.600;23.398;2023-10-13T00:24:43;41091.81;;;-138.15;72.74
20897;BME280;10608;42.600;23.398;2023-10-13T00:27:14;41042.63;;;-138.15;73.52
20897;BME280;10608;42.600;23.398;2023-10-13T00:30:13;41030.84;;;-138.15;73.18
20897;BME280;10608;42.600;23.398;2023-10-13T00:32:52;41042.63;;;-138.15;72.94
20897;BME280;10608;42.600;23.398;2023-10-13T00:35:22;40956.13;;;-138.15;73.80
20897;BME280;10608;42.600;23.398;2023-10-13T00:37:52;40904.97;;;-138.15;74.18
20897;BME280;10608;42.600;23.398;2023-10-13T00:40:21;40910.88;;;-138.15;73.94
20897;BME280;10608;42.600;23.398;2023-10-13T00:42:59;40832.22;;;-138.15;74.80
20897;BME280;10608;42.600;23.398;2023-10-13T00:45:44;40804.69;;;-138.15;74.81
20897;BME280;10608;42.600;23.398;2023-10-13T00:48:13;40787.00;;;-138.15;75.84
20897;BME280;10608;42.600;23.398;2023-10-13T00:50:41;40661.13;;;-138.15;76.98
20897;BME280;10608;42.600;23.398;2023-10-13T00:53:07;40421.25;;;-138.15;77.63
20897;BME280;10608;42.600;23.398;2023-10-13T00:55:33;40468.44;;;-138.15;77.34
20897;BME280;10608;42.600;23.398;2023-10-13T00:58:02;40444.84;;;-138.15;77.67
20897;BME280;10608;42.600;23.398;2023-10-13T01:00:31;40366.19;;;-138.15;77.38
20897;BME280;10608;42.600;23.398;2023-10-13T01:02:58;40354.38;;;-138.15;76.92
20897;BME280;10608;42.600;23.398;2023-10-13T01:05:31;40330.78;;;-138.15;76.94
20897;BME280;10608;42.600;23.398;2023-10-13T01:08:00;40240.34;;;-138.15;77.77
20897;BME280;10608;42.600;23.398;2023-10-13T01:10:27;40224.63;;;-138.15;77.28
20897;BME280;10608;42.600;23.398;2023-10-13T01:12:54;40171.53;;;-138.15;78.21
20897;BME280;10608;42.600;23.398;2023-10-13T01:15:20;40147.94;;;-138.15;77.45
20897;BME280;10608;42.600;23.398;2023-10-13T01:17:54;40114.50;;;-138.15;77.52
20897;BME280;10608;42.600;23.398;2023-10-13T01:20:31;40098.78;;;-138.15;77.34
20897;BME280;10608;42.600;23.398;2023-10-13T01:22:58;40083.06;;;-138.15;77.31
20897;BME280;10608;42.600;23.398;2023-10-13T01:25:24;40061.41;;;-138.15;76.56
20897;BME280;10608;42.600;23.398;2023-10-13T01:27:53;40077.16;;;-138.15;77.51
20897;BME280;10608;42.600;23.398;2023-10-13T01:30:19;40059.47;;;-138.15;77.39
20897;BME280;10608;42.600;23.398;2023-10-13T01:32:52;40067.31;;;-138.15;76.78
20897;BME280;10608;42.600;23.398;2023-10-13T01:35:19;40063.38;;;-138.15;75.87
20897;BME280;10608;42.600;23.398;2023-10-13T01:37:50;40100.75;;;-138.15;76.08
20897;BME280;10608;42.600;23.398;2023-10-13T01:40:15;40053.56;;;-138.15;75.37
20897;BME280;10608;42.600;23.398;2023-10-13T01:42:45;40102.72;;;-138.15;74.77
20897;BME280;10608;42.600;23.398;2023-10-13T01:45:11;40138.09;;;-138.15;74.87
20897;BME280;10608;42.600;23.398;2023-10-13T01:47:39;40126.31;;;-138.15;74.56
20897;BME280;10608;42.600;23.398;2023-10-13T01:50:06;40112.53;;;-138.15;75.42
20897;BME280;10608;42.600;23.398;2023-10-13T01:52:53;40094.84;;;-138.15;75.94
20897;BME280;10608;42.600;23.398;2023-10-13T01:55:25;40085.00;;;-138.15;76.78
20897;BME280;10608;42.600;23.398;2023-10-13T01:57:51;40081.09;;;-138.15;76.26
20897;BME280;10608;42.600;23.398;2023-10-13T02:00:17;40069.28;;;-138.15;76.73
20897;BME280;10608;42.600;23.398;2023-10-13T02:02:45;39957.22;;;-138.15;76.64
20897;BME280;10608;42.600;23.398;2023-10-13T02:05:15;40096.81;;;-138.15;77.87
20897;BME280;10608;42.600;23.398;2023-10-13T02:07:42;40000.47;;;-138.15;77.85
20897;BME280;10608;42.600;23.398;2023-10-13T02:10:11;40000.47;;;-138.15;77.61
20897;BME280;10608;42.600;23.398;2023-10-13T02:12:37;39980.81;;;-138.15;77.72
20897;BME280;10608;42.600;23.398;2023-10-13T02:15:13;39949.34;;;-138.15;77.33
20897;BME280;10608;42.600;23.398;2023-10-13T02:17:52;39972.94;;;-138.15;77.09
20897;BME280;10608;42.600;23.398;2023-10-13T02:20:20;39986.72;;;-138.15;76.75
20897;BME280;10608;42.600;23.398;2023-10-13T02:22:48;39994.56;;;-138.15;76.63
20897;BME280;10608;42.600;23.398;2023-10-13T02:25:18;39963.13;;;-138.15;76.96
20897;BME280;10608;42.600;23.398;2023-10-13T02:28:03;39988.69;;;-138.15;76.22
20897;BME280;10608;42.600;23.398;2023-10-13T02:30:37;39984.75;;;-138.15;76.42
20897;BME280;10608;42.600;23.398;2023-10-13T02:33:03;39969.00;;;-138.15;76.56
20897;BME280;10608;42.600;23.398;2023-10-13T02:35:31;39980.81;;;-138.15;76.23
20897;BME280;10608;42.600;23.398;2023-10-13T02:38:07;40035.88;;;-138.15;75.60
20897;BME280;10608;42.600;23.398;2023-10-13T02:40:37;39969.00;;;-138.15;76.06
20897;BME280;10608;42.600;23.398;2023-10-13T02:43:02;40024.06;;;-138.15;76.49
20897;BME280;10608;42.600;23.398;2023-10-13T02:45:30;39996.53;;;-138.15;76.32
20897;BME280;10608;42.600;23.398;2023-10-13T02:47:55;39965.09;;;-138.15;76.82
20897;BME280;10608;42.600;23.398;2023-10-13T02:50:37;39969.00;;;-138.15;76.01
20897;BME280;10608;42.600;23.398;2023-10-13T02:53:04;39969.00;;;-138.15;75.59
20897;BME280;10608;42.600;23.398;2023-10-13T02:55:37;40016.19;;;-138.15;75.55
20897;BME280;10608;42.600;23.398;2023-10-13T02:58:04;39965.09;;;-138.15;77.65
20897;BME280;10608;42.600;23.398;2023-10-13T03:00:29;39931.66;;;-138.15;79.92
20897;BME280;10608;42.600;23.398;2023-10-13T03:02:57;39866.78;;;-138.15;79.86
20897;BME280;10608;42.600;23.398;2023-10-13T03:05:26;39796.00;;;-138.15;81.08
20897;BME280;10608;42.600;23.398;2023-10-13T03:07:55;39721.28;;;-138.15;81.25
20897;BME280;10608;42.600;23.398;2023-10-13T03:10:21;39660.34;;;-138.15;82.49
20897;BME280;10608;42.600;23.398;2023-10-13T03:12:54;39587.63;;;-138.15;81.71
20897;BME280;10608;42.600;23.398;2023-10-13T03:15:20;39562.06;;;-138.15;81.82
20897;BME280;10608;42.600;23.398;2023-10-13T03:17:48;39520.78;;;-138.15;81.42
20897;BME280;10608;42.600;23.398;2023-10-13T03:20:15;39530.59;;;-138.15;80.42
20897;BME280;10608;42.600;23.398;2023-10-13T03:22:52;39583.69;;;-138.15;80.09
20897;BME280;10608;42.600;23.398;2023-10-13T03:25:18;39544.38;;;-138.15;80.43
20897;BME280;10608;42.600;23.398;2023-10-13T03:27:55;39520.78;;;-138.15;79.75
20897;BME280;10608;42.600;23.398;2023-10-13T03:30:21;39532.56;;;-138.15;79.62
20897;BME280;10608;42.600;23.398;2023-10-13T03:32:48;39532.56;;;-138.15;79.26
20897;BME280;10608;42.600;23.398;2023-10-13T03:35:20;39575.81;;;-138.15;79.71
20897;BME280;10608;42.600;23.398;2023-10-13T03:37:52;39528.63;;;-138.15;79.08
20897;BME280;10608;42.600;23.398;2023-10-13T03:40:17;39544.38;;;-138.15;78.99
20897;BME280;10608;42.600;23.398;2023-10-13T03:42:53;39607.28;;;-138.15;77.61
20897;BME280;10608;42.600;23.398;2023-10-13T03:45:38;39573.84;;;-138.15;77.77
20897;BME280;10608;42.600;23.398;2023-10-13T03:48:16;39615.13;;;-138.15;77.95
20897;BME280;10608;42.600;23.398;2023-10-13T03:50:52;39571.88;;;-138.15;78.31
20897;BME280;10608;42.600;23.398;2023-10-13T03:53:27;39587.63;;;-138.15;78.60
20897;BME280;10608;42.600;23.398;2023-10-13T03:56:01;39571.88;;;-138.15;78.58
20897;BME280;10608;42.600;23.398;2023-10-13T03:58:36;39589.59;;;-138.15;78.63
20897;BME280;10608;42.600;23.398;2023-10-13T04:01:04;39605.31;;;-138.15;78.84
20897;BME280;10608;42.600;23.398;2023-10-13T04:03:31;39591.53;;;-138.15;79.12
20897;BME280;10608;42.600;23.398;2023-10-13T04:06:01;39554.19;;;-138.15;79.59
20897;BME280;10608;42.600;23.398;2023-10-13T04:08:31;39540.44;;;-138.15;80.34
20897;BME280;10608;42.600;23.398;2023-10-13T04:11:08;39516.84;;;-138.15;80.36
20897;BME280;10608;42.600;23.398;2023-10-13T04:13:53;39520.78;;;-138.15;80.21
20897;BME280;10608;42.600;23.398;2023-10-13T04:16:37;39499.16;;;-138.15;80.68
20897;BME280;10608;42.600;23.398;2023-10-13T04:19:05;39481.47;;;-138.15;81.24
20897;BME280;10608;42.600;23.398;2023-10-13T04:21:33;39475.56;;;-138.15;80.61
20897;BME280;10608;42.600;23.398;2023-10-13T04:24:08;39440.19;;;-138.15;81.31
20897;BME280;10608;42.600;23.398;2023-10-13T04:26:48;39406.75;;;-138.15;81.41
20897;BME280;10608;42.600;23.398;2023-10-13T04:29:32;39379.22;;;-138.15;82.30
20897;BME280;10608;42.600;23.398;2023-10-13T04:32:16;39353.69;;;-138.15;83.11
20897;BME280;10608;42.600;23.398;2023-10-13T04:34:59;39332.06;;;-138.15;83.18
20897;BME280;10608;42.600;23.398;2023-10-13T04:37:42;39253.44;;;-138.15;82.98
20897;BME280;10608;42.600;23.398;2023-10-13T04:40:24;39157.09;;;-138.15;83.31
20897;BME280;10608;42.600;23.398;2023-10-13T04:43:01;39141.38;;;-138.15;83.70
20897;BME280;10608;42.600;23.398;2023-10-13T04:45:52;39143.34;;;-138.15;83.49
20897;BME280;10608;42.600;23.398;2023-10-13T04:48:20;39159.06;;;-138.15;83.58
20897;BME280;10608;42.600;23.398;2023-10-13T04:50:49;39041.13;;;-138.15;84.38
20897;BME280;10608;42.600;23.398;2023-10-13T04:53:22;39088.31;;;-138.15;83.23
20897;BME280;10608;42.600;23.398;2023-10-13T04:56:20;39050.97;;;-138.15;82.38
20897;BME280;10608;42.600;23.398;2023-10-13T04:59:04;39029.34;;;-138.15;82.19
20897;BME280;10608;42.600;23.398;2023-10-13T05:02:02;39066.69;;;-138.15;80.51
20897;BME280;10608;42.600;23.398;2023-10-13T05:04:46;39080.44;;;-138.15;80.98
20897;BME280;10608;42.600;23.398;2023-10-13T05:07:29;39050.97;;;-138.15;81.75
20897;BME280;10608;42.600;23.398;2023-10-13T05:10:14;38887.81;;;-138.15;81.25
20897;BME280;10608;42.600;23.398;2023-10-13T05:12:57;38876.03;;;-138.15;78.29
20897;BME280;10608;42.600;23.398;2023-10-13T05:15:47;39111.91;;;-138.15;69.36
20897;BME280;10608;42.600;23.398;2023-10-13T05:18:31;39339.91;;;-138.15;65.65
20897;BME280;10608;42.600;23.398;2023-10-13T05:21:16;39353.69;;;-138.15;62.96
20897;BME280;10608;42.600;23.398;2023-10-13T05:24:00;39571.88;;;-138.15;57.33
20897;BME280;10608;42.600;23.398;2023-10-13T05:26:44;40112.53;;;-138.15;50.54
20897;BME280;10608;42.600;23.398;2023-10-13T05:29:28;40346.53;;;-138.15;47.15
20897;BME280;10608;42.600;23.398;2023-10-13T05:32:12;40523.50;;;-138.15;45.29
20897;BME280;10608;42.600;23.398;2023-10-13T05:34:56;40647.38;;;-138.15;42.59
20897;BME280;10608;42.600;23.398;2023-10-13T05:37:40;40735.84;;;-138.15;39.82
20897;BME280;10608;42.600;23.398;2023-10-13T05:40:23;40885.31;;;-138.15;38.37
20897;BME280;10608;42.600;23.398;2023-10-13T05:43:07;40753.56;;;-138.15;37.84
20897;BME280;10608;42.600;23.398;2023-10-13T05:45:52;40845.97;;;-138.15;35.09
20897;BME280;10608;42.600;23.398;2023-10-13T05:48:36;40724.06;;;-138.15;32.89
20897;BME280;10608;42.600;23.398;2023-10-13T05:51:21;41276.69;;;-138.15;30.80
20897;BME280;10608;42.600;23.398;2023-10-13T05:54:05;42258.19;;;-138.15;30.43
20897;BME280;10608;42.600;23.398;2023-10-13T05:56:43;42323.13;;;-138.15;30.33
20897;BME280;10608;42.600;23.398;2023-10-13T05:59:28;42197.22;;;-138.15;29.04
20897;BME280;10608;42.600;23.398;2023-10-13T06:02:12;42439.19;;;-138.15;28.51
20897;BME280;10608;42.600;23.398;2023-10-13T06:04:57;42706.75;;;-138.15;27.82
20897;BME280;10608;42.600;23.398;2023-10-13T06:07:41;42673.31;;;-138.15;28.04
20897;BME280;10608;42.600;23.398;2023-10-13T06:10:25;42549.34;;;-138.15;27.11
20897;BME280;10608;42.600;23.398;2023-10-13T06:13:09;42671.34;;;-138.15;26.97
20897;BME280;10608;42.600;23.398;2023-10-13T06:15:53;42191.31;;;-138.15;26.17
20897;BME280;10608;42.600;23.398;2023-10-13T06:18:37;62864.19;;;-138.16;100.00
20897;BME280;10608;42.600;23.398;2023-10-13T06:21:21;42191.31;;;-138.15;26.17
20897;BME280;10608;42.600;23.398;2023-10-13T06:24:06;41770.34;;;-138.15;23.80
20897;BME280;10608;42.600;23.398;2023-10-13T06:26:50;41601.19;;;-138.15;22.68
20897;BME280;10608;42.600;23.398;2023-10-13T06:29:34;41945.41;;;-138.15;22.51
20897;BME280;10608;42.600;23.398;2023-10-13T06:32:00;41101.63;;;-138.15;21.27
20897;BME280;10608;42.600;23.398;2023-10-13T06:34:30;40381.91;;;-138.15;19.62
20897;BME280;10608;42.600;23.398;2023-10-13T06:37:25;40828.28;;;-138.15;19.28
20897;BME280;10608;42.600;23.398;2023-10-13T06:40:00;41404.50;;;-138.15;19.68
20897;BME280;10608;42.600;23.398;2023-10-13T06:42:33;40665.06;;;-138.15;19.13
20897;BME280;10608;42.600;23.398;2023-10-13T06:45:08;40568.72;;;-138.15;18.50
20897;BME280;10608;42.600;23.398;2023-10-13T06:47:36;40739.78;;;-138.15;18.31
20897;BME280;10608;42.600;23.398;2023-10-13T06:50:12;41353.38;;;-138.15;18.24
20897;BME280;10608;42.600;23.398;2023-10-13T06:52:50;41257.00;;;-138.15;18.18
20897;BME280;10608;42.600;23.398;2023-10-13T06:55:15;41233.41;;;-138.15;17.92
20897;BME280;10608;42.600;23.398;2023-10-13T06:58:00;41555.97;;;-138.15;17.92
20897;BME280;10608;42.600;23.398;2023-10-13T07:00:26;40932.50;;;-138.15;17.27
20897;BME280;10608;42.600;23.398;2023-10-13T07:02:58;40842.06;;;-138.15;17.17
20897;BME280;10608;42.600;23.398;2023-10-13T07:05:37;41626.78;;;-138.15;17.21
20897;BME280;10608;42.600;23.398;2023-10-13T07:08:05;41648.41;;;-138.15;17.34
20897;BME280;10608;42.600;23.398;2023-10-13T07:10:30;41599.22;;;-138.15;17.38
20897;BME280;10608;42.600;23.398;2023-10-13T07:12:57;41797.91;;;-138.15;16.57
20897;BME280;10608;42.600;23.398;2023-10-13T07:15:25;41624.81;;;-138.15;16.94
20897;BME280;10608;42.600;23.398;2023-10-13T07:17:53;42089.03;;;-138.15;16.60
20897;BME280;10608;42.600;23.398;2023-10-13T07:20:25;42191.31;;;-138.15;16.92
20897;BME280;10608;42.600;23.398;2023-10-13T07:23:00;42492.31;;;-138.15;17.50
20897;BME280;10608;42.600;23.398;2023-10-13T07:25:29;42677.25;;;-138.15;17.39
20897;BME280;10608;42.600;23.398;2023-10-13T07:27:59;42553.28;;;-138.15;17.17
20897;BME280;10608;42.600;23.398;2023-10-13T07:30:25;42632.00;;;-138.15;16.90
20897;BME280;10608;42.600;23.398;2023-10-13T07:32:52;42879.88;;;-138.15;17.35
20897;BME280;10608;42.600;23.398;2023-10-13T07:35:19;43932.66;;;-138.15;17.69
20897;BME280;10608;42.600;23.398;2023-10-13T07:37:46;44202.28;;;-138.15;18.46
20897;BME280;10608;42.600;23.398;2023-10-13T07:40:14;44471.94;;;-138.15;18.47
20897;BME280;10608;42.600;23.398;2023-10-13T07:42:52;44901.06;;;-138.15;19.45
20897;BME280;10608;42.600;23.398;2023-10-13T07:45:18;45676.75;;;-138.15;20.25
20897;BME280;10608;42.600;23.398;2023-10-13T07:47:47;46297.00;;;-138.15;20.84
20897;BME280;10608;42.600;23.398;2023-10-13T07:50:13;46641.66;;;-138.15;21.60
20897;BME280;10608;42.600;23.398;2023-10-13T07:52:39;45735.81;;;-138.15;20.22
20897;BME280;10608;42.600;23.398;2023-10-13T07:55:23;45137.31;;;-138.15;19.94
20897;BME280;10608;42.600;23.398;2023-10-13T07:57:49;44658.94;;;-138.15;19.06
20897;BME280;10608;42.600;23.398;2023-10-13T08:00:21;45145.19;;;-138.15;19.61
20897;BME280;10608;42.600;23.398;2023-10-13T08:03:13;45007.38;;;-138.15;19.87
20897;BME280;10608;42.600;23.398;2023-10-13T08:05:51;44686.50;;;-138.15;19.09
20897;BME280;10608;42.600;23.398;2023-10-13T08:08:31;44556.59;;;-138.15;19.20
20897;BME280;10608;42.600;23.398;2023-10-13T08:11:10;45265.25;;;-138.15;20.31
20897;BME280;10608;42.600;23.398;2023-10-13T08:13:49;45044.78;;;-138.15;19.95
20897;BME280;10608;42.600;23.398;2023-10-13T08:16:20;44960.13;;;-138.15;19.68
20897;BME280;10608;42.600;23.398;2023-10-13T08:18:50;44830.19;;;-138.15;19.99
20897;BME280;10608;42.600;23.398;2023-10-13T08:21:19;44739.66;;;-138.15;19.40
20897;BME280;10608;42.600;23.398;2023-10-13T08:23:51;44121.59;;;-138.15;19.26
20897;BME280;10608;42.600;23.398;2023-10-13T08:26:32;44651.06;;;-138.15;19.32
20897;BME280;10608;42.600;23.398;2023-10-13T08:29:17;44926.66;;;-138.15;19.65
20897;BME280;10608;42.600;23.398;2023-10-13T08:31:50;45320.38;;;-138.15;20.09
20897;BME280;10608;42.600;23.398;2023-10-13T08:34:46;45434.56;;;-138.15;20.39
20897;BME280;10608;42.600;23.398;2023-10-13T08:37:13;45903.19;;;-138.15;20.93
20897;BME280;10608;42.600;23.398;2023-10-13T08:39:51;46486.06;;;-138.15;22.59
20897;BME280;10608;42.600;23.398;2023-10-13T08:42:33;46576.66;;;-138.15;22.79
20897;BME280;10608;42.600;23.398;2023-10-13T08:45:15;46549.09;;;-138.15;22.55
20897;BME280;10608;42.600;23.398;2023-10-13T08:48:01;46954.78;;;-138.15;23.49
20897;BME280;10608;42.600;23.398;2023-10-13T08:53:21;46793.28;;;-138.15;23.15
20897;BME280;10608;42.600;23.398;2023-10-13T08:56:09;46013.44;;;-138.15;22.12
20897;BME280;10608;42.600;23.398;2023-10-13T08:58:44;45769.28;;;-138.15;21.34
20897;BME280;10608;42.600;23.398;2023-10-13T09:01:27;46066.63;;;-138.15;21.77
20897;BME280;10608;42.600;23.398;2023-10-13T09:04:15;46509.69;;;-138.15;22.46
20897;BME280;10608;42.600;23.398;2023-10-13T09:06:56;46911.47;;;-138.15;23.62
20897;BME280;10608;42.600;23.398;2023-10-13T09:09:25;46732.25;;;-138.15;23.74
20897;BME280;10608;42.600;23.398;2023-10-13T09:12:16;46468.34;;;-138.15;23.28
20897;BME280;10608;42.600;23.398;2023-10-13T09:14:53;46106.00;;;-138.15;22.57
20897;BME280;10608;42.600;23.398;2023-10-13T09:17:31;46035.13;;;-138.15;21.97
20897;BME280;10608;42.600;23.398;2023-10-13T09:20:07;45836.25;;;-138.15;21.57
20897;BME280;10608;42.600;23.398;2023-10-13T09:22:56;46135.53;;;-138.15;22.07
20897;BME280;10608;42.600;23.398;2023-10-13T09:25:38;45828.38;;;-138.15;21.71
20897;BME280;10608;42.600;23.398;2023-10-13T09:28:11;45493.66;;;-138.15;21.97
20897;BME280;10608;42.600;23.398;2023-10-13T09:33:12;44249.53;;;-138.15;20.03
20897;BME280;10608;42.600;23.398;2023-10-13T09:35:44;44651.06;;;-138.15;19.61
20897;BME280;10608;42.600;23.398;2023-10-13T09:38:19;45025.09;;;-138.15;19.98
20897;BME280;10608;42.600;23.398;2023-10-13T09:40:46;45076.28;;;-138.15;20.19
20897;BME280;10608;42.600;23.398;2023-10-13T09:43:27;45279.03;;;-138.15;20.79
20897;BME280;10608;42.600;23.398;2023-10-13T09:45:59;45399.13;;;-138.15;21.14
20897;BME280;10608;42.600;23.398;2023-10-13T09:48:37;45574.38;;;-138.15;20.72
20897;BME280;10608;42.600;23.398;2023-10-13T09:51:12;45609.81;;;-138.15;21.11
20897;BME280;10608;42.600;23.398;2023-10-13T09:53:39;46182.78;;;-138.15;21.92
20897;BME280;10608;42.600;23.398;2023-10-13T09:58:54;46655.44;;;-138.15;22.74
20897;BME280;10608;42.600;23.398;2023-10-13T10:01:24;46972.53;;;-138.15;23.65
20897;BME280;10608;42.600;23.398;2023-10-13T10:04:14;46761.78;;;-138.15;23.42
20897;BME280;10608;42.600;23.398;2023-10-13T10:06:55;47065.09;;;-138.15;24.28
20897;BME280;10608;42.600;23.398;2023-10-13T10:09:29;47049.34;;;-138.15;24.02
20897;BME280;10608;42.600;23.398;2023-10-13T10:17:41;47407.81;;;-138.15;25.03
20897;BME280;10608;42.600;23.398;2023-10-13T10:20:08;47275.84;;;-138.15;25.02
20897;BME280;10608;42.600;23.398;2023-10-13T10:22:58;47254.19;;;-138.15;23.47
20897;BME280;10608;42.600;23.398;2023-10-13T10:25:34;47155.69;;;-138.15;23.47
20897;BME280;10608;42.600;23.398;2023-10-13T10:28:07;47139.94;;;-138.15;22.73
20897;BME280;10608;42.600;23.398;2023-10-13T10:30:35;47187.22;;;-138.15;22.65
20897;BME280;10608;42.600;23.398;2023-10-13T10:33:04;47033.56;;;-138.15;22.52
20897;BME280;10608;42.600;23.398;2023-10-13T10:35:38;46876.00;;;-138.15;22.66
20897;BME280;10608;42.600;23.398;2023-10-13T10:38:12;46903.59;;;-138.15;21.94
20897;BME280;10608;42.600;23.398;2023-10-13T10:40:52;47043.44;;;-138.15;21.41
20897;BME280;10608;42.600;23.398;2023-10-13T10:43:28;46816.94;;;-138.15;21.95
20897;BME280;10608;42.600;23.398;2023-10-13T10:46:15;47447.22;;;-138.15;21.52
20897;BME280;10608;42.600;23.398;2023-10-13T10:48:46;47594.97;;;-138.15;21.87
20897;BME280;10608;42.600;23.398;2023-10-13T10:51:15;47541.78;;;-138.15;22.03
20897;BME280;10608;42.600;23.398;2023-10-13T10:53:47;47484.66;;;-138.15;21.91
20897;BME280;10608;42.600;23.398;2023-10-13T10:56:15;47455.09;;;-138.15;22.15
20897;BME280;10608;42.600;23.398;2023-10-13T10:59:07;47455.09;;;-138.15;22.03
20897;BME280;10608;42.600;23.398;2023-10-13T11:01:45;47464.94;;;-138.15;21.66
20897;BME280;10608;42.600;23.398;2023-10-13T11:04:16;47691.47;;;-138.15;21.82
20897;BME280;10608;42.600;23.398;2023-10-13T11:06:53;47734.81;;;-138.15;22.42
20897;BME280;10608;42.600;23.398;2023-10-13T11:09:26;47707.25;;;-138.15;22.70
20897;BME280;10608;42.600;23.398;2023-10-13T11:11:52;47774.22;;;-138.15;22.10
20897;BME280;10608;42.600;23.398;2023-10-13T11:14:25;47782.09;;;-138.15;22.15
20897;BME280;10608;42.600;23.398;2023-10-13T11:16:53;47667.84;;;-138.15;22.52
20897;BME280;10608;42.600;23.398;2023-10-13T11:19:39;47797.84;;;-138.15;22.18
20897;BME280;10608;42.600;23.398;2023-10-13T11:22:18;47843.16;;;-138.15;22.12
20897;BME280;10608;42.600;23.398;2023-10-13T11:25:03;47768.31;;;-138.15;22.55
20897;BME280;10608;42.600;23.398;2023-10-13T11:27:39;47990.91;;;-138.15;22.56
20897;BME280;10608;42.600;23.398;2023-10-13T11:30:14;48018.50;;;-138.15;22.62
20897;BME280;10608;42.600;23.398;2023-10-13T11:32:42;47782.09;;;-138.15;22.53
20897;BME280;10608;42.600;23.398;2023-10-13T11:35:11;47665.88;;;-138.15;22.26
20897;BME280;10608;42.600;23.398;2023-10-13T11:37:46;47596.94;;;-138.15;22.01
20897;BME280;10608;42.600;23.398;2023-10-13T11:40:21;47594.97;;;-138.15;22.10
20897;BME280;10608;42.600;23.398;2023-10-13T11:43:07;47638.28;;;-138.15;21.35
20897;BME280;10608;42.600;23.398;2023-10-13T11:45:39;47535.84;;;-138.15;21.81
20897;BME280;10608;42.600;23.398;2023-10-13T11:48:19;47557.53;;;-138.15;22.12
20897;BME280;10608;42.600;23.398;2023-10-13T11:50:59;47575.25;;;-138.15;22.00
20897;BME280;10608;42.600;23.398;2023-10-13T11:53:24;47823.47;;;-138.15;21.54
20897;BME280;10608;42.600;23.398;2023-10-13T11:55:52;47703.31;;;-138.15;21.51
20897;BME280;10608;42.600;23.398;2023-10-13T11:58:18;47600.88;;;-138.15;21.62
20897;BME280;10608;42.600;23.398;2023-10-13T12:00:43;47709.22;;;-138.15;21.78
20897;BME280;10608;42.600;23.398;2023-10-13T12:03:47;47699.38;;;-138.15;21.78
20897;BME280;10608;42.600;23.398;2023-10-13T12:06:33;47803.78;;;-138.15;22.00
20897;BME280;10608;42.600;23.398;2023-10-13T12:09:06;47715.13;;;-138.15;22.29
20897;BME280;10608;42.600;23.398;2023-10-13T12:11:38;47758.47;;;-138.15;21.51
20897;BME280;10608;42.600;23.398;2023-10-13T12:14:14;47825.44;;;-138.15;21.89
20897;BME280;10608;42.600;23.398;2023-10-13T12:16:48;47894.38;;;-138.15;21.97
20897;BME280;10608;42.600;23.398;2023-10-13T12:19:26;47782.09;;;-138.15;22.40
20897;BME280;10608;42.600;23.398;2023-10-13T12:21:54;47636.31;;;-138.15;22.35
20897;BME280;10608;42.600;23.398;2023-10-13T12:24:21;47870.75;;;-138.15;21.41
20897;BME280;10608;42.600;23.398;2023-10-13T12:26:56;47752.56;;;-138.15;22.27
20897;BME280;10608;42.600;23.398;2023-10-13T12:29:25;47736.78;;;-138.15;22.08
20897;BME280;10608;42.600;23.398;2023-10-13T12:32:00;47719.06;;;-138.15;22.52
20897;BME280;10608;42.600;23.398;2023-10-13T12:34:37;47837.25;;;-138.15;22.05
20897;BME280;10608;42.600;23.398;2023-10-13T12:37:32;47994.88;;;-138.15;22.16
20897;BME280;10608;42.600;23.398;2023-10-13T12:40:19;48004.72;;;-138.15;21.93
20897;BME280;10608;42.600;23.398;2023-10-13T12:43:04;48073.66;;;-138.15;22.36
20897;BME280;10608;42.600;23.398;2023-10-13T12:45:49;48146.56;;;-138.15;22.22
20897;BME280;10608;42.600;23.398;2023-10-13T12:48:35;48109.13;;;-138.15;22.29
20897;BME280;10608;42.600;23.398;2023-10-13T12:51:20;48091.41;;;-138.15;22.52
20897;BME280;10608;42.600;23.398;2023-10-13T12:53:52;48028.34;;;-138.15;22.88
20897;BME280;10608;42.600;23.398;2023-10-13T12:56:19;48024.41;;;-138.15;22.67
20897;BME280;10608;42.600;23.398;2023-10-13T12:58:51;47994.88;;;-138.15;22.72
20897;BME280;10608;42.600;23.398;2023-10-13T13:01:21;48091.41;;;-138.15;22.36
20897;BME280;10608;42.600;23.398;2023-10-13T13:03:48;48022.44;;;-138.15;22.98
20897;BME280;10608;42.600;23.398;2023-10-13T13:06:17;48042.16;;;-138.15;23.02
20897;BME280;10608;42.600;23.398;2023-10-13T13:08:44;48075.63;;;-138.15;22.63
20897;BME280;10608;42.600;23.398;2023-10-13T13:11:10;48128.84;;;-138.15;22.78
20897;BME280;10608;42.600;23.398;2023-10-13T13:13:36;48213.56;;;-138.15;22.88
20897;BME280;10608;42.600;23.398;2023-10-13T13:16:02;48199.75;;;-138.15;22.52
20897;BME280;10608;42.600;23.398;2023-10-13T13:18:28;48191.88;;;-138.15;22.75
20897;BME280;10608;42.600;23.398;2023-10-13T13:20:54;48174.16;;;-138.15;23.13
20897;BME280;10608;42.600;23.398;2023-10-13T13:23:20;48209.59;;;-138.15;23.29